Kalaheo, HI (96741)

10:21 PM HST on August 29, 2015 (GMT -1000)
Koloa Estates | | Change Station
CLOSE
Current Station
Personal Weather Station
Location: Koloa, HI
Elevation: 144 ft
Nearby Weather Stations

Elev 144 ft 21.89 °N, 159.47 °W | Updated 8 seconds ago

Mostly Cloudy
Mostly Cloudy
78.4 °F
Feels Like 81 °F
N
6.8
Wind Variable Wind from NNE
Gusts 7.0 mph

Today
High -- | Low -- °F
--% Chance of Precip.
Yesterday
High -- | Low -- °F
Precip. -- in
6:20 AM 6:57 PM
Full, 100% visible
Pressure 29.95 in
Visibility 10.0 miles
Clouds Scattered Clouds 1900 ft
Mostly Cloudy 2500 ft
Mostly Cloudy 3800 ft
Heat Index 81 °F
Dew Point 74 °F
Humidity 88%
Rainfall 0.00 in
Snow Depth Not available.
UV 0 out of 12
Pollen Not available.
Air Quality Not available.
Flu Activity Not available.
SPECI PHLI 300817Z AUTO 07012KT 10SM SCT019 BKN025 BKN038 27/26 A2995 RMK AO2 TSNO $
Pressure 29.95 in
Visibility 10.0 miles
Clouds Scattered Clouds 1900 ft
Mostly Cloudy 2500 ft
Mostly Cloudy 3800 ft
Heat Index 81 °F
Dew Point 74 °F
Humidity 88%
Rainfall 0.00 in
Snow Depth Not available.
UV 0 out of 12
Pollen Not available.
Air Quality Not available.
Flu Activity Not available.
SPECI PHLI 300817Z AUTO 07012KT 10SM SCT019 BKN025 BKN038 27/26 A2995 RMK AO2 TSNO $
Hurricane Ignacio strengthened into a Category 4 hurricane Saturday and its current forecast track takes it just north of The Big Island Monday. While it is not a direct threat to make landfall in Hawaii, a track slightly to the south of its current forecast track could deteriorate weather conditions in the state. See the forecast track

10-Day Weather Forecast

×

Almanac

Astronomy

Aug. 29, 2015 Rise Set
Actual Time
Civil Twilight
Nautical Twilight
Astronomical Twilight
Moon
Length of Visible Light
Length of Day
Tomorrow will be .
, % of the Moon is Illuminated

Today's Extremes

State Highs State Lows

Community

WunderPhotos

Upload Photos

1,850,909 photos uploaded!

WunderBlogs® & News

Nearby

Air Quality

  Air Quality AQ Index Pollutant
Not available.

Snow Depth

Station Depth Elevation

Earthquake Activity

City Distance Mag. Time & Date
Minimum magnitude displayed is 2.5.

Coastal Water Temperatures

Place Temperature

Stations

Nearby Weather Stations

Station Location Temp. Windchill Dew Point Humidity Wind Precip. Elev Updated Type